sensor_id;sensor_type;location;lat;lon;timestamp;P1;durP1;ratioP1;P2;durP2;ratioP2
43861;SDS011;29510;52.140;5.034;2023-12-04T00:01:45;22.70;;;10.03;;
43861;SDS011;29510;52.140;5.034;2023-12-04T00:11:46;21.73;;;9.30;;
43861;SDS011;29510;52.140;5.034;2023-12-04T00:21:47;21.67;;;10.27;;
43861;SDS011;29510;52.140;5.034;2023-12-04T00:31:47;20.00;;;8.40;;
43861;SDS011;29510;52.140;5.034;2023-12-04T00:41:48;23.05;;;8.77;;
43861;SDS011;29510;52.140;5.034;2023-12-04T00:51:49;17.35;;;8.27;;
43861;SDS011;29510;52.140;5.034;2023-12-04T01:01:49;21.70;;;9.27;;
43861;SDS011;29510;52.140;5.034;2023-12-04T01:11:53;24.27;;;9.73;;
43861;SDS011;29510;52.140;5.034;2023-12-04T01:21:54;20.52;;;9.15;;
43861;SDS011;29510;52.140;5.034;2023-12-04T01:31:55;24.05;;;10.05;;
43861;SDS011;29510;52.140;5.034;2023-12-04T01:41:55;22.50;;;9.85;;
43861;SDS011;29510;52.140;5.034;2023-12-04T01:51:56;22.65;;;10.38;;
43861;SDS011;29510;52.140;5.034;2023-12-04T02:01:57;26.95;;;10.40;;
43861;SDS011;29510;52.140;5.034;2023-12-04T02:11:58;26.17;;;10.10;;
43861;SDS011;29510;52.140;5.034;2023-12-04T02:21:59;24.50;;;9.82;;
43861;SDS011;29510;52.140;5.034;2023-12-04T02:32:00;26.38;;;10.80;;
43861;SDS011;29510;52.140;5.034;2023-12-04T02:42:04;24.73;;;10.55;;
43861;SDS011;29510;52.140;5.034;2023-12-04T02:52:04;22.30;;;10.23;;
43861;SDS011;29510;52.140;5.034;2023-12-04T03:02:05;21.75;;;9.85;;
43861;SDS011;29510;52.140;5.034;2023-12-04T03:12:06;20.90;;;9.93;;
43861;SDS011;29510;52.140;5.034;2023-12-04T03:22:06;22.83;;;9.40;;
43861;SDS011;29510;52.140;5.034;2023-12-04T03:32:07;25.50;;;11.07;;
43861;SDS011;29510;52.140;5.034;2023-12-04T03:42:07;22.08;;;9.70;;
43861;SDS011;29510;52.140;5.034;2023-12-04T03:52:08;24.60;;;10.90;;
43861;SDS011;29510;52.140;5.034;2023-12-04T04:02:09;20.25;;;8.93;;
43861;SDS011;29510;52.140;5.034;2023-12-04T04:12:09;19.92;;;9.45;;
43861;SDS011;29510;52.140;5.034;2023-12-04T04:22:10;19.77;;;8.65;;
43861;SDS011;29510;52.140;5.034;2023-12-04T04:32:11;19.67;;;9.10;;
43861;SDS011;29510;52.140;5.034;2023-12-04T04:42:11;18.27;;;8.38;;
43861;SDS011;29510;52.140;5.034;2023-12-04T04:52:12;20.65;;;8.68;;
43861;SDS011;29510;52.140;5.034;2023-12-04T05:02:12;19.27;;;8.57;;
43861;SDS011;29510;52.140;5.034;2023-12-04T05:12:13;20.90;;;8.38;;
43861;SDS011;29510;52.140;5.034;2023-12-04T05:22:14;20.27;;;9.70;;
43861;SDS011;29510;52.140;5.034;2023-12-04T05:32:14;17.53;;;8.23;;
43861;SDS011;29510;52.140;5.034;2023-12-04T05:42:15;18.15;;;8.70;;
43861;SDS011;29510;52.140;5.034;2023-12-04T05:52:16;18.50;;;8.77;;
43861;SDS011;29510;52.140;5.034;2023-12-04T06:02:16;16.90;;;8.02;;
43861;SDS011;29510;52.140;5.034;2023-12-04T06:12:17;17.73;;;7.95;;
43861;SDS011;29510;52.140;5.034;2023-12-04T06:22:18;16.13;;;7.97;;
43861;SDS011;29510;52.140;5.034;2023-12-04T06:32:20;18.13;;;8.93;;
43861;SDS011;29510;52.140;5.034;2023-12-04T06:42:21;16.27;;;8.23;;
43861;SDS011;29510;52.140;5.034;2023-12-04T06:52:21;14.52;;;7.60;;
43861;SDS011;29510;52.140;5.034;2023-12-04T07:02:22;13.38;;;7.20;;
43861;SDS011;29510;52.140;5.034;2023-12-04T07:12:22;16.38;;;8.13;;
43861;SDS011;29510;52.140;5.034;2023-12-04T07:22:23;22.48;;;9.30;;
43861;SDS011;29510;52.140;5.034;2023-12-04T07:32:24;14.85;;;7.05;;
43861;SDS011;29510;52.140;5.034;2023-12-04T07:42:24;17.05;;;8.75;;
43861;SDS011;29510;52.140;5.034;2023-12-04T07:52:25;15.38;;;8.23;;
43861;SDS011;29510;52.140;5.034;2023-12-04T08:02:25;15.20;;;7.50;;
43861;SDS011;29510;52.140;5.034;2023-12-04T08:12:26;14.70;;;7.13;;
43861;SDS011;29510;52.140;5.034;2023-12-04T08:22:27;16.30;;;6.97;;
43861;SDS011;29510;52.140;5.034;2023-12-04T08:32:27;13.43;;;6.60;;
43861;SDS011;29510;52.140;5.034;2023-12-04T08:42:29;14.65;;;6.68;;
43861;SDS011;29510;52.140;5.034;2023-12-04T08:52:30;12.98;;;6.45;;
43861;SDS011;29510;52.140;5.034;2023-12-04T09:02:31;11.02;;;6.03;;
43861;SDS011;29510;52.140;5.034;2023-12-04T09:12:31;11.20;;;5.95;;
43861;SDS011;29510;52.140;5.034;2023-12-04T09:22:32;11.60;;;5.28;;
43861;SDS011;29510;52.140;5.034;2023-12-04T09:32:34;10.88;;;5.95;;
43861;SDS011;29510;52.140;5.034;2023-12-04T09:42:35;10.80;;;5.70;;
43861;SDS011;29510;52.140;5.034;2023-12-04T09:52:36;11.88;;;6.20;;
43861;SDS011;29510;52.140;5.034;2023-12-04T10:02:38;11.07;;;5.88;;
43861;SDS011;29510;52.140;5.034;2023-12-04T10:12:39;10.02;;;5.80;;
43861;SDS011;29510;52.140;5.034;2023-12-04T10:22:52;12.52;;;5.82;;
43861;SDS011;29510;52.140;5.034;2023-12-04T10:32:57;11.02;;;5.93;;
43861;SDS011;29510;52.140;5.034;2023-12-04T10:43:10;11.05;;;5.88;;
43861;SDS011;29510;52.140;5.034;2023-12-04T10:53:13;11.23;;;5.68;;
43861;SDS011;29510;52.140;5.034;2023-12-04T11:03:21;14.05;;;7.95;;
43861;SDS011;29510;52.140;5.034;2023-12-04T11:13:29;11.43;;;5.93;;
43861;SDS011;29510;52.140;5.034;2023-12-04T11:23:32;11.93;;;6.80;;
43861;SDS011;29510;52.140;5.034;2023-12-04T11:33:36;14.80;;;7.00;;
43861;SDS011;29510;52.140;5.034;2023-12-04T11:43:37;10.98;;;6.85;;
43861;SDS011;29510;52.140;5.034;2023-12-04T11:53:43;12.85;;;6.85;;
43861;SDS011;29510;52.140;5.034;2023-12-04T12:03:44;14.38;;;8.15;;
43861;SDS011;29510;52.140;5.034;2023-12-04T12:13:44;15.85;;;8.40;;
43861;SDS011;29510;52.140;5.034;2023-12-04T12:23:45;17.65;;;8.85;;
43861;SDS011;29510;52.140;5.034;2023-12-04T12:33:46;15.80;;;8.25;;
43861;SDS011;29510;52.140;5.034;2023-12-04T12:43:47;14.75;;;8.07;;
43861;SDS011;29510;52.140;5.034;2023-12-04T12:53:51;15.70;;;8.32;;
43861;SDS011;29510;52.140;5.034;2023-12-04T13:03:52;18.33;;;8.97;;
43861;SDS011;29510;52.140;5.034;2023-12-04T13:13:53;17.80;;;8.90;;
43861;SDS011;29510;52.140;5.034;2023-12-04T13:23:54;15.88;;;7.82;;
43861;SDS011;29510;52.140;5.034;2023-12-04T13:33:54;14.00;;;8.02;;
43861;SDS011;29510;52.140;5.034;2023-12-04T13:43:55;17.33;;;7.80;;
43861;SDS011;29510;52.140;5.034;2023-12-04T13:53:57;14.00;;;7.93;;
43861;SDS011;29510;52.140;5.034;2023-12-04T14:04:09;17.02;;;8.25;;
43861;SDS011;29510;52.140;5.034;2023-12-04T14:14:10;17.00;;;7.78;;
43861;SDS011;29510;52.140;5.034;2023-12-04T14:24:13;12.40;;;6.90;;
43861;SDS011;29510;52.140;5.034;2023-12-04T14:34:13;14.73;;;7.75;;
43861;SDS011;29510;52.140;5.034;2023-12-04T14:44:14;13.67;;;7.13;;
43861;SDS011;29510;52.140;5.034;2023-12-04T14:54:15;25.05;;;12.02;;
43861;SDS011;29510;52.140;5.034;2023-12-04T15:04:21;17.60;;;9.33;;
43861;SDS011;29510;52.140;5.034;2023-12-04T15:14:40;14.70;;;8.02;;
43861;SDS011;29510;52.140;5.034;2023-12-04T15:24:53;14.32;;;8.32;;
43861;SDS011;29510;52.140;5.034;2023-12-04T15:34:54;14.32;;;8.10;;
43861;SDS011;29510;52.140;5.034;2023-12-04T15:44:54;14.75;;;8.02;;
43861;SDS011;29510;52.140;5.034;2023-12-04T15:54:55;13.80;;;8.00;;
43861;SDS011;29510;52.140;5.034;2023-12-04T16:04:55;14.25;;;7.10;;
43861;SDS011;29510;52.140;5.034;2023-12-04T16:14:56;15.13;;;8.07;;
43861;SDS011;29510;52.140;5.034;2023-12-04T16:24:56;14.73;;;8.60;;
43861;SDS011;29510;52.140;5.034;2023-12-04T16:34:57;17.70;;;9.65;;
43861;SDS011;29510;52.140;5.034;2023-12-04T16:44:58;18.30;;;9.43;;
43861;SDS011;29510;52.140;5.034;2023-12-04T16:54:58;15.85;;;9.23;;
43861;SDS011;29510;52.140;5.034;2023-12-04T17:04:59;19.20;;;10.40;;
43861;SDS011;29510;52.140;5.034;2023-12-04T17:15:00;20.35;;;11.38;;
43861;SDS011;29510;52.140;5.034;2023-12-04T17:25:00;20.20;;;11.25;;
43861;SDS011;29510;52.140;5.034;2023-12-04T17:35:01;19.00;;;10.98;;
43861;SDS011;29510;52.140;5.034;2023-12-04T17:45:02;22.23;;;12.15;;
43861;SDS011;29510;52.140;5.034;2023-12-04T17:55:03;19.80;;;11.50;;
43861;SDS011;29510;52.140;5.034;2023-12-04T18:05:07;23.92;;;12.95;;
43861;SDS011;29510;52.140;5.034;2023-12-04T18:15:10;23.88;;;12.85;;
43861;SDS011;29510;52.140;5.034;2023-12-04T18:25:11;20.75;;;12.40;;
43861;SDS011;29510;52.140;5.034;2023-12-04T18:35:12;22.02;;;11.77;;
43861;SDS011;29510;52.140;5.034;2023-12-04T18:45:14;18.98;;;11.20;;
43861;SDS011;29510;52.140;5.034;2023-12-04T18:55:15;17.73;;;11.27;;
43861;SDS011;29510;52.140;5.034;2023-12-04T19:05:16;19.38;;;11.35;;
43861;SDS011;29510;52.140;5.034;2023-12-04T19:15:17;21.15;;;12.50;;
43861;SDS011;29510;52.140;5.034;2023-12-04T19:25:18;21.52;;;13.50;;
43861;SDS011;29510;52.140;5.034;2023-12-04T19:35:18;26.23;;;15.18;;
43861;SDS011;29510;52.140;5.034;2023-12-04T19:45:20;28.92;;;16.58;;
43861;SDS011;29510;52.140;5.034;2023-12-04T19:55:21;31.42;;;18.25;;
43861;SDS011;29510;52.140;5.034;2023-12-04T20:05:22;30.70;;;18.83;;
43861;SDS011;29510;52.140;5.034;2023-12-04T20:15:22;33.17;;;18.27;;
43861;SDS011;29510;52.140;5.034;2023-12-04T20:25:23;33.10;;;18.73;;
43861;SDS011;29510;52.140;5.034;2023-12-04T20:35:26;31.23;;;17.38;;
43861;SDS011;29510;52.140;5.034;2023-12-04T20:45:26;32.13;;;19.20;;
43861;SDS011;29510;52.140;5.034;2023-12-04T20:55:28;31.52;;;18.35;;
43861;SDS011;29510;52.140;5.034;2023-12-04T21:05:29;33.10;;;18.60;;
43861;SDS011;29510;52.140;5.034;2023-12-04T21:15:29;34.33;;;19.42;;
43861;SDS011;29510;52.140;5.034;2023-12-04T21:25:30;31.83;;;17.70;;
43861;SDS011;29510;52.140;5.034;2023-12-04T21:35:30;31.80;;;18.48;;
43861;SDS011;29510;52.140;5.034;2023-12-04T21:45:31;30.42;;;17.42;;
43861;SDS011;29510;52.140;5.034;2023-12-04T21:55:32;31.90;;;17.13;;
43861;SDS011;29510;52.140;5.034;2023-12-04T22:05:32;31.77;;;17.95;;
43861;SDS011;29510;52.140;5.034;2023-12-04T22:15:35;30.75;;;17.60;;
43861;SDS011;29510;52.140;5.034;2023-12-04T22:25:36;32.03;;;17.73;;
43861;SDS011;29510;52.140;5.034;2023-12-04T22:35:36;29.75;;;17.30;;
43861;SDS011;29510;52.140;5.034;2023-12-04T22:45:37;34.63;;;19.13;;
43861;SDS011;29510;52.140;5.034;2023-12-04T22:55:37;34.97;;;19.02;;
43861;SDS011;29510;52.140;5.034;2023-12-04T23:05:38;34.03;;;19.73;;
43861;SDS011;29510;52.140;5.034;2023-12-04T23:15:38;38.88;;;21.27;;
43861;SDS011;29510;52.140;5.034;2023-12-04T23:25:39;38.63;;;20.80;;
43861;SDS011;29510;52.140;5.034;2023-12-04T23:35:39;40.10;;;22.10;;
43861;SDS011;29510;52.140;5.034;2023-12-04T23:45:40;37.95;;;20.08;;
43861;SDS011;29510;52.140;5.034;2023-12-04T23:55:41;38.53;;;21.98;;
